Rocklake, North Dakota
Current Conditions -  °F | °C
As of 4:15 AM on Sunday 26 Oct 2014 (Local Time) from K06D Reporting Station
Clear Clear  
Wind Chill:   Ceiling: Unl
Heat Index:   Visibility: 10mi
Dew Point: -2°   Wind: 10mph
Humidity: 65%   Direction: 160°SSE
Pressure: 29.84"   Gusts: NA
Location:  48.79°N, 99.25°W
Report Text: K06D 260915Z AUTO 16009KT 10SM CLR 04/M02 A2984 RMK AO2
Loading
Personal Weather Stations






























Interactive Weather Map
Tropical Storm Tracking
New forecast layout! Learn more

10-Day Weather Forecast

Advertisements
Track Severe Weather on mobile